San Nicolas, Argentina
Current Conditions -  °F | °C
As of 4:00 AM on Sunday 21 Dec 2014 (Local Time) from SAAR Reporting Station
Overcast Overcast  
Wind Chill: 63°   Ceiling: 800
Heat Index: 63°   Visibility: 6mi
Dew Point: 59°   Wind: 18mph
Humidity: 88%   Direction: 160°SSE
Pressure: 29.71"   Gusts: NA
Location:  33.32°S, 60.22°W
Report Text: SAAR 210700Z 16016KT 9999 BKN008 OVC01417/15 Q1006
Loading
Personal Weather Stations






























Interactive Weather Map New forecast layout! Learn more

10-Day Weather Forecast

Advertisements
Track Severe Weather on mobile